Terminal Aerodrome Forecast
Issued by NWS Central Illinois

Home | Current Version | Previous Version | Text Only | Print | Product List | Glossary On
Versions: 1 2 3 4 5 6 7 8 9 10 11 12 13 14 15 16 17 18 19
000
FTUS43 KILX 301145
TAFSPI
TAF
KSPI 301145Z 3012/0112 34008KT P6SM VCSH FEW006 BKN010
      TEMPO 3012/3013 5SM BR OVC006
     FM301700 36012KT P6SM VCSH OVC010
     FM302300 36009KT P6SM OVC020
     FM010200 35006KT 6SM BR VCSH SCT006 OVC015
     FM010800 35004KT 5SM BR OVC006=

USA.gov is the U.S. government's official web portal to all federal, state and local government web resources and services.